sensor_id;sensor_type;location;lat;lon;timestamp;pressure;altitude;pressure_sealevel;temperature;humidity
8140;BME280;4111;50.972;7.072;2023-02-01T00:00:26;101583.41;;;7.79;100.00
8140;BME280;4111;50.972;7.072;2023-02-01T00:02:52;101587.13;;;7.78;100.00
8140;BME280;4111;50.972;7.072;2023-02-01T00:05:19;101581.53;;;7.72;100.00
8140;BME280;4111;50.972;7.072;2023-02-01T00:07:47;101575.69;;;7.75;100.00
8140;BME280;4111;50.972;7.072;2023-02-01T00:10:14;101577.16;;;7.71;100.00
8140;BME280;4111;50.972;7.072;2023-02-01T00:12:41;101578.81;;;7.66;100.00
8140;BME280;4111;50.972;7.072;2023-02-01T00:15:08;101575.47;;;7.64;100.00
8140;BME280;4111;50.972;7.072;2023-02-01T00:17:34;101588.19;;;7.63;100.00
8140;BME280;4111;50.972;7.072;2023-02-01T00:20:01;101592.97;;;7.61;100.00
8140;BME280;4111;50.972;7.072;2023-02-01T00:22:28;101593.78;;;7.62;100.00
8140;BME280;4111;50.972;7.072;2023-02-01T00:24:54;101594.63;;;7.69;100.00
8140;BME280;4111;50.972;7.072;2023-02-01T00:27:21;101599.22;;;7.68;100.00
8140;BME280;4111;50.972;7.072;2023-02-01T00:29:47;101596.28;;;7.70;100.00
8140;BME280;4111;50.972;7.072;2023-02-01T00:32:14;101598.16;;;7.69;100.00
8140;BME280;4111;50.972;7.072;2023-02-01T00:34:41;101580.06;;;7.63;100.00
8140;BME280;4111;50.972;7.072;2023-02-01T00:37:07;101585.47;;;7.63;100.00
8140;BME280;4111;50.972;7.072;2023-02-01T00:39:34;101578.00;;;7.65;100.00
8140;BME280;4111;50.972;7.072;2023-02-01T00:42:00;101577.59;;;7.68;100.00
8140;BME280;4111;50.972;7.072;2023-02-01T00:44:28;101579.66;;;7.66;100.00
8140;BME280;4111;50.972;7.072;2023-02-01T00:46:59;101569.03;;;7.58;100.00
8140;BME280;4111;50.972;7.072;2023-02-01T00:49:27;101580.91;;;7.57;100.00
8140;BME280;4111;50.972;7.072;2023-02-01T00:51:54;101577.13;;;7.58;100.00
8140;BME280;4111;50.972;7.072;2023-02-01T00:54:20;101586.53;;;7.62;100.00
8140;BME280;4111;50.972;7.072;2023-02-01T00:56:47;101590.06;;;7.63;100.00
8140;BME280;4111;50.972;7.072;2023-02-01T00:59:13;101590.44;;;7.60;99.79
8140;BME280;4111;50.972;7.072;2023-02-01T01:01:40;101587.56;;;7.61;99.60
8140;BME280;4111;50.972;7.072;2023-02-01T01:04:06;101563.63;;;7.58;98.87
8140;BME280;4111;50.972;7.072;2023-02-01T01:06:33;101560.28;;;7.56;98.62
8140;BME280;4111;50.972;7.072;2023-02-01T01:09:02;101552.19;;;7.56;98.13
8140;BME280;4111;50.972;7.072;2023-02-01T01:11:32;101539.72;;;7.55;97.28
8140;BME280;4111;50.972;7.072;2023-02-01T01:14:00;101532.25;;;7.57;97.23
8140;BME280;4111;50.972;7.072;2023-02-01T01:16:28;101526.84;;;7.57;97.17
8140;BME280;4111;50.972;7.072;2023-02-01T01:18:55;101534.31;;;7.55;96.93
8140;BME280;4111;50.972;7.072;2023-02-01T01:21:22;101552.81;;;7.58;96.15
8140;BME280;4111;50.972;7.072;2023-02-01T01:23:49;101564.25;;;7.60;96.03
8140;BME280;4111;50.972;7.072;2023-02-01T01:26:18;101559.47;;;7.55;95.49
8140;BME280;4111;50.972;7.072;2023-02-01T01:28:45;101567.78;;;7.54;94.98
8140;BME280;4111;50.972;7.072;2023-02-01T01:31:13;101578.38;;;7.49;94.26
8140;BME280;4111;50.972;7.072;2023-02-01T01:33:40;101585.88;;;7.47;93.95
8140;BME280;4111;50.972;7.072;2023-02-01T01:36:11;101585.03;;;7.46;93.60
8140;BME280;4111;50.972;7.072;2023-02-01T01:38:41;101585.44;;;7.43;93.13
8140;BME280;4111;50.972;7.072;2023-02-01T01:41:09;101592.09;;;7.41;92.74
8140;BME280;4111;50.972;7.072;2023-02-01T01:43:56;101590.03;;;7.43;92.73
8140;BME280;4111;50.972;7.072;2023-02-01T01:46:29;101585.00;;;7.40;91.98
8140;BME280;4111;50.972;7.072;2023-02-01T01:49:04;101588.53;;;7.40;91.01
8140;BME280;4111;50.972;7.072;2023-02-01T01:51:36;101584.59;;;7.36;90.91
8140;BME280;4111;50.972;7.072;2023-02-01T01:54:16;101586.28;;;7.37;90.55
8140;BME280;4111;50.972;7.072;2023-02-01T01:56:47;101572.97;;;7.35;90.49
8140;BME280;4111;50.972;7.072;2023-02-01T01:59:17;101569.63;;;7.33;90.29
8140;BME280;4111;50.972;7.072;2023-02-01T02:01:45;101567.31;;;7.30;90.11
8140;BME280;4111;50.972;7.072;2023-02-01T02:04:11;101569.41;;;7.28;89.71
8140;BME280;4111;50.972;7.072;2023-02-01T02:06:59;101566.06;;;7.26;89.46
8140;BME280;4111;50.972;7.072;2023-02-01T02:09:26;101558.38;;;7.23;89.54
8140;BME280;4111;50.972;7.072;2023-02-01T02:11:53;101543.84;;;7.24;89.59
8140;BME280;4111;50.972;7.072;2023-02-01T02:14:21;101540.09;;;7.25;89.48
8140;BME280;4111;50.972;7.072;2023-02-01T02:16:55;101554.03;;;7.29;89.35
8140;BME280;4111;50.972;7.072;2023-02-01T02:28:15;101538.66;;;7.23;88.75
8140;BME280;4111;50.972;7.072;2023-02-01T02:34:12;101536.34;;;7.20;88.51
8140;BME280;4111;50.972;7.072;2023-02-01T02:39:23;101533.84;;;7.18;88.00
8140;BME280;4111;50.972;7.072;2023-02-01T02:42:08;101547.16;;;7.20;87.67
8140;BME280;4111;50.972;7.072;2023-02-01T02:50:57;101533.03;;;7.24;88.09
8140;BME280;4111;50.972;7.072;2023-02-01T02:53:51;101523.91;;;7.25;87.62
8140;BME280;4111;50.972;7.072;2023-02-01T02:56:39;101523.47;;;7.22;87.83
8140;BME280;4111;50.972;7.072;2023-02-01T02:59:25;101524.28;;;7.22;87.71
8140;BME280;4111;50.972;7.072;2023-02-01T03:02:12;101519.72;;;7.16;87.73
8140;BME280;4111;50.972;7.072;2023-02-01T03:04:58;101521.41;;;7.17;87.70
8140;BME280;4111;50.972;7.072;2023-02-01T03:10:21;101513.91;;;7.19;87.42
8140;BME280;4111;50.972;7.072;2023-02-01T03:12:50;101514.75;;;7.20;87.64
8140;BME280;4111;50.972;7.072;2023-02-01T03:15:32;101499.16;;;7.15;88.06
8140;BME280;4111;50.972;7.072;2023-02-01T03:18:04;101505.59;;;7.14;88.23
8140;BME280;4111;50.972;7.072;2023-02-01T03:20:33;101498.94;;;7.17;87.90
8140;BME280;4111;50.972;7.072;2023-02-01T03:23:02;101501.44;;;7.18;88.09
8140;BME280;4111;50.972;7.072;2023-02-01T03:25:33;101504.75;;;7.20;88.49
8140;BME280;4111;50.972;7.072;2023-02-01T03:28:03;101511.00;;;7.21;88.46
8140;BME280;4111;50.972;7.072;2023-02-01T03:30:42;101517.69;;;7.25;88.46
8140;BME280;4111;50.972;7.072;2023-02-01T03:33:16;101513.09;;;7.25;88.58
8140;BME280;4111;50.972;7.072;2023-02-01T03:38:30;101513.53;;;7.29;88.89
8140;BME280;4111;50.972;7.072;2023-02-01T03:41:18;101513.91;;;7.32;88.87
8140;BME280;4111;50.972;7.072;2023-02-01T03:44:20;101508.50;;;7.32;88.94
8140;BME280;4111;50.972;7.072;2023-02-01T03:47:08;101502.72;;;7.29;89.16
8140;BME280;4111;50.972;7.072;2023-02-01T03:49:40;101512.03;;;7.26;89.59
8140;BME280;4111;50.972;7.072;2023-02-01T03:52:14;101500.22;;;7.27;89.31
8140;BME280;4111;50.972;7.072;2023-02-01T03:54:42;101494.19;;;7.25;89.28
8140;BME280;4111;50.972;7.072;2023-02-01T03:57:13;101492.31;;;7.26;89.74
8140;BME280;4111;50.972;7.072;2023-02-01T03:59:42;101486.09;;;7.25;89.36
8140;BME280;4111;50.972;7.072;2023-02-01T04:02:08;101485.25;;;7.25;89.49
8140;BME280;4111;50.972;7.072;2023-02-01T04:04:35;101484.00;;;7.27;89.10
8140;BME280;4111;50.972;7.072;2023-02-01T04:07:02;101498.97;;;7.23;89.13
8140;BME280;4111;50.972;7.072;2023-02-01T04:09:29;101499.78;;;7.24;89.34
8140;BME280;4111;50.972;7.072;2023-02-01T04:11:55;101499.97;;;7.22;88.69
8140;BME280;4111;50.972;7.072;2023-02-01T04:14:22;101498.34;;;7.28;89.17
8140;BME280;4111;50.972;7.072;2023-02-01T04:16:48;101505.41;;;7.29;89.20
8140;BME280;4111;50.972;7.072;2023-02-01T04:19:15;101502.28;;;7.25;89.02
8140;BME280;4111;50.972;7.072;2023-02-01T04:21:41;101505.00;;;7.25;88.50
8140;BME280;4111;50.972;7.072;2023-02-01T04:24:08;101499.78;;;7.30;88.99
8140;BME280;4111;50.972;7.072;2023-02-01T04:26:35;101494.00;;;7.27;88.62
8140;BME280;4111;50.972;7.072;2023-02-01T04:29:01;101495.84;;;7.26;88.61
8140;BME280;4111;50.972;7.072;2023-02-01T04:31:28;101500.22;;;7.27;88.60
8140;BME280;4111;50.972;7.072;2023-02-01T04:33:55;101496.47;;;7.28;88.64
8140;BME280;4111;50.972;7.072;2023-02-01T04:36:23;101486.47;;;7.22;87.78
8140;BME280;4111;50.972;7.072;2023-02-01T04:38:50;101486.47;;;7.22;88.25
8140;BME280;4111;50.972;7.072;2023-02-01T04:41:18;101487.34;;;7.23;88.32
8140;BME280;4111;50.972;7.072;2023-02-01T04:43:46;101486.09;;;7.25;88.08
8140;BME280;4111;50.972;7.072;2023-02-01T04:46:13;101486.47;;;7.22;88.01
8140;BME280;4111;50.972;7.072;2023-02-01T04:48:40;101461.53;;;7.20;88.10
8140;BME280;4111;50.972;7.072;2023-02-01T04:51:06;101448.66;;;7.22;87.80
8140;BME280;4111;50.972;7.072;2023-02-01T04:53:33;101440.38;;;7.17;87.66
8140;BME280;4111;50.972;7.072;2023-02-01T04:55:59;101444.09;;;7.09;87.60
8140;BME280;4111;50.972;7.072;2023-02-01T04:58:26;101459.88;;;7.06;87.81
8140;BME280;4111;50.972;7.072;2023-02-01T05:00:52;101467.34;;;7.04;87.49
8140;BME280;4111;50.972;7.072;2023-02-01T05:03:19;101469.22;;;7.03;87.46
8140;BME280;4111;50.972;7.072;2023-02-01T05:05:47;101464.03;;;7.02;87.06
8140;BME280;4111;50.972;7.072;2023-02-01T05:08:14;101460.50;;;7.01;87.06
8140;BME280;4111;50.972;7.072;2023-02-01T05:10:41;101471.50;;;7.00;87.25
8140;BME280;4111;50.972;7.072;2023-02-01T05:13:08;101470.44;;;7.01;86.85
8140;BME280;4111;50.972;7.072;2023-02-01T05:15:54;101472.94;;;6.95;87.33
8140;BME280;4111;50.972;7.072;2023-02-01T05:18:21;101479.78;;;6.91;87.02
8140;BME280;4111;50.972;7.072;2023-02-01T05:20:47;101483.53;;;6.90;86.97
8140;BME280;4111;50.972;7.072;2023-02-01T05:23:13;101484.34;;;6.84;86.93
8140;BME280;4111;50.972;7.072;2023-02-01T05:25:40;101472.72;;;6.84;86.89
8140;BME280;4111;50.972;7.072;2023-02-01T05:28:06;101475.81;;;6.81;86.74
8140;BME280;4111;50.972;7.072;2023-02-01T05:30:32;101471.84;;;6.77;86.93
8140;BME280;4111;50.972;7.072;2023-02-01T05:33:02;101475.59;;;6.82;86.79
8140;BME280;4111;50.972;7.072;2023-02-01T05:35:29;101470.63;;;6.86;86.94
8140;BME280;4111;50.972;7.072;2023-02-01T05:37:56;101475.22;;;6.85;86.52
8140;BME280;4111;50.972;7.072;2023-02-01T05:40:22;101469.19;;;6.83;86.20
8140;BME280;4111;50.972;7.072;2023-02-01T05:42:49;101475.16;;;6.72;86.30
8140;BME280;4111;50.972;7.072;2023-02-01T05:45:16;101476.81;;;6.73;86.29
8140;BME280;4111;50.972;7.072;2023-02-01T05:47:43;101481.63;;;6.78;86.36
8140;BME280;4111;50.972;7.072;2023-02-01T05:50:09;101484.09;;;6.79;86.22
8140;BME280;4111;50.972;7.072;2023-02-01T05:52:36;101481.81;;;6.76;86.19
8140;BME280;4111;50.972;7.072;2023-02-01T05:55:02;101466.03;;;6.73;86.19
8140;BME280;4111;50.972;7.072;2023-02-01T05:57:29;101482.84;;;6.68;86.05
8140;BME280;4111;50.972;7.072;2023-02-01T05:59:56;101482.00;;;6.68;85.99
8140;BME280;4111;50.972;7.072;2023-02-01T06:02:25;101488.63;;;6.65;85.65
8140;BME280;4111;50.972;7.072;2023-02-01T06:04:51;101478.88;;;6.64;85.83
8140;BME280;4111;50.972;7.072;2023-02-01T06:07:18;101490.72;;;6.70;85.98
8140;BME280;4111;50.972;7.072;2023-02-01T06:09:45;101493.00;;;6.73;85.81
8140;BME280;4111;50.972;7.072;2023-02-01T06:12:11;101498.84;;;6.77;85.94
8140;BME280;4111;50.972;7.072;2023-02-01T06:14:38;101493.44;;;6.70;86.22
8140;BME280;4111;50.972;7.072;2023-02-01T06:17:04;101478.44;;;6.67;86.59
8140;BME280;4111;50.972;7.072;2023-02-01T06:19:32;101480.97;;;6.69;86.67
8140;BME280;4111;50.972;7.072;2023-02-01T06:21:58;101483.66;;;6.69;86.21
8140;BME280;4111;50.972;7.072;2023-02-01T06:24:25;101489.69;;;6.71;85.99
8140;BME280;4111;50.972;7.072;2023-02-01T06:26:51;101487.41;;;6.68;86.33
8140;BME280;4111;50.972;7.072;2023-02-01T06:29:18;101485.53;;;6.62;86.22
8140;BME280;4111;50.972;7.072;2023-02-01T06:31:44;101482.41;;;6.65;86.00
8140;BME280;4111;50.972;7.072;2023-02-01T06:34:11;101487.59;;;6.60;86.32
8140;BME280;4111;50.972;7.072;2023-02-01T06:36:38;101495.88;;;6.58;86.18
8140;BME280;4111;50.972;7.072;2023-02-01T06:39:04;101489.25;;;6.61;86.43
8140;BME280;4111;50.972;7.072;2023-02-01T06:41:31;101499.66;;;6.70;86.57
8140;BME280;4111;50.972;7.072;2023-02-01T06:43:57;101516.28;;;6.74;86.70
8140;BME280;4111;50.972;7.072;2023-02-01T06:46:24;101501.34;;;6.71;86.26
8140;BME280;4111;50.972;7.072;2023-02-01T06:48:50;101514.22;;;6.76;86.53
8140;BME280;4111;50.972;7.072;2023-02-01T06:51:22;101515.91;;;6.84;85.96
8140;BME280;4111;50.972;7.072;2023-02-01T06:53:49;101511.13;;;6.86;86.40
8140;BME280;4111;50.972;7.072;2023-02-01T06:56:15;101514.03;;;6.91;86.04
8140;BME280;4111;50.972;7.072;2023-02-01T06:58:42;101523.00;;;6.91;85.71
8140;BME280;4111;50.972;7.072;2023-02-01T07:01:10;101502.66;;;6.95;85.75
8140;BME280;4111;50.972;7.072;2023-02-01T07:03:37;101510.56;;;6.97;85.53
8140;BME280;4111;50.972;7.072;2023-02-01T07:06:05;101509.50;;;6.91;85.30
8140;BME280;4111;50.972;7.072;2023-02-01T07:08:33;101512.19;;;6.91;85.38
8140;BME280;4111;50.972;7.072;2023-02-01T07:11:09;101513.66;;;6.94;85.20
8140;BME280;4111;50.972;7.072;2023-02-01T07:13:36;101523.63;;;7.00;85.51
8140;BME280;4111;50.972;7.072;2023-02-01T07:16:06;101522.56;;;6.94;85.31
8140;BME280;4111;50.972;7.072;2023-02-01T07:18:33;101525.91;;;6.97;85.00
8140;BME280;4111;50.972;7.072;2023-02-01T07:21:00;101511.38;;;6.98;85.57
8140;BME280;4111;50.972;7.072;2023-02-01T07:23:27;101524.69;;;7.06;85.41
8140;BME280;4111;50.972;7.072;2023-02-01T07:25:59;101529.66;;;7.02;85.65
8140;BME280;4111;50.972;7.072;2023-02-01T07:28:26;101539.22;;;7.05;85.61
8140;BME280;4111;50.972;7.072;2023-02-01T07:30:54;101541.72;;;7.00;85.13
8140;BME280;4111;50.972;7.072;2023-02-01T07:33:22;101534.63;;;6.99;85.20
8140;BME280;4111;50.972;7.072;2023-02-01T07:35:53;101548.75;;;7.01;85.22
8140;BME280;4111;50.972;7.072;2023-02-01T07:38:19;101535.03;;;6.95;84.98
8140;BME280;4111;50.972;7.072;2023-02-01T07:40:47;101539.00;;;7.00;85.16
8140;BME280;4111;50.972;7.072;2023-02-01T07:43:14;101549.56;;;6.94;85.61
8140;BME280;4111;50.972;7.072;2023-02-01T07:45:40;101538.13;;;6.92;85.95
8140;BME280;4111;50.972;7.072;2023-02-01T07:48:07;101543.97;;;6.89;85.94
8140;BME280;4111;50.972;7.072;2023-02-01T07:50:33;101540.19;;;6.84;85.93
8140;BME280;4111;50.972;7.072;2023-02-01T07:53:00;101546.66;;;6.89;85.75
8140;BME280;4111;50.972;7.072;2023-02-01T07:55:27;101539.19;;;6.91;85.95
8140;BME280;4111;50.972;7.072;2023-02-01T07:57:56;101544.59;;;6.91;86.04
8140;BME280;4111;50.972;7.072;2023-02-01T08:00:23;101526.72;;;6.90;86.02
8140;BME280;4111;50.972;7.072;2023-02-01T08:03:08;101529.59;;;6.89;85.94
8140;BME280;4111;50.972;7.072;2023-02-01T08:05:34;101542.06;;;6.83;85.68
8140;BME280;4111;50.972;7.072;2023-02-01T08:08:03;101548.28;;;6.84;86.38
8140;BME280;4111;50.972;7.072;2023-02-01T08:10:29;101545.78;;;6.82;86.18
8140;BME280;4111;50.972;7.072;2023-02-01T08:12:59;101557.22;;;6.84;86.29
8140;BME280;4111;50.972;7.072;2023-02-01T08:15:27;101549.75;;;6.86;86.42
8140;BME280;4111;50.972;7.072;2023-02-01T08:17:53;101549.94;;;6.85;85.81
8140;BME280;4111;50.972;7.072;2023-02-01T08:20:22;101553.06;;;6.88;85.97
8140;BME280;4111;50.972;7.072;2023-02-01T08:22:54;101546.41;;;6.84;85.99
8140;BME280;4111;50.972;7.072;2023-02-01T08:25:21;101562.81;;;6.83;86.04
8140;BME280;4111;50.972;7.072;2023-02-01T08:27:48;101558.28;;;6.83;86.31
8140;BME280;4111;50.972;7.072;2023-02-01T08:30:15;101560.56;;;6.86;86.20
8140;BME280;4111;50.972;7.072;2023-02-01T08:32:42;101557.84;;;6.86;86.01
8140;BME280;4111;50.972;7.072;2023-02-01T08:35:08;101560.97;;;6.83;86.18
8140;BME280;4111;50.972;7.072;2023-02-01T08:37:38;101564.94;;;6.87;86.16
8140;BME280;4111;50.972;7.072;2023-02-01T08:40:15;101564.94;;;6.87;86.15
8140;BME280;4111;50.972;7.072;2023-02-01T08:42:41;101561.59;;;6.85;86.29
8140;BME280;4111;50.972;7.072;2023-02-01T08:45:21;101572.81;;;6.89;86.43
8140;BME280;4111;50.972;7.072;2023-02-01T08:47:48;101576.34;;;6.89;86.29
8140;BME280;4111;50.972;7.072;2023-02-01T08:50:15;101579.06;;;6.89;86.27
8140;BME280;4111;50.972;7.072;2023-02-01T08:52:41;101580.31;;;6.93;86.15
8140;BME280;4111;50.972;7.072;2023-02-01T08:55:08;101593.44;;;7.03;85.77
8140;BME280;4111;50.972;7.072;2023-02-01T08:57:35;101589.50;;;7.06;85.82
8140;BME280;4111;50.972;7.072;2023-02-01T09:00:03;101587.81;;;7.05;85.73
8140;BME280;4111;50.972;7.072;2023-02-01T09:02:30;101592.44;;;7.11;85.30
8140;BME280;4111;50.972;7.072;2023-02-01T09:04:57;101587.44;;;7.08;85.29
8140;BME280;4111;50.972;7.072;2023-02-01T09:07:26;101591.38;;;7.12;85.27
8140;BME280;4111;50.972;7.072;2023-02-01T09:09:52;101583.47;;;7.10;85.17
8140;BME280;4111;50.972;7.072;2023-02-01T09:12:20;101581.22;;;7.14;85.24
8140;BME280;4111;50.972;7.072;2023-02-01T09:14:47;101587.03;;;7.11;85.09
8140;BME280;4111;50.972;7.072;2023-02-01T09:17:13;101573.09;;;7.14;84.91
8140;BME280;4111;50.972;7.072;2023-02-01T09:19:40;101577.25;;;7.17;84.90
8140;BME280;4111;50.972;7.072;2023-02-01T09:22:08;101570.63;;;7.19;85.06
8140;BME280;4111;50.972;7.072;2023-02-01T09:24:34;101571.91;;;7.23;85.10
8140;BME280;4111;50.972;7.072;2023-02-01T09:27:01;101577.50;;;7.28;84.91
8140;BME280;4111;50.972;7.072;2023-02-01T09:29:27;101575.44;;;7.30;84.41
8140;BME280;4111;50.972;7.072;2023-02-01T09:31:54;101622.59;;;7.28;83.87
8140;BME280;4111;50.972;7.072;2023-02-01T09:34:29;101571.16;;;6.88;84.46
8140;BME280;4111;50.972;7.072;2023-02-01T09:36:55;101570.44;;;6.31;84.83
8140;BME280;4111;50.972;7.072;2023-02-01T09:39:22;101578.56;;;6.03;86.47
8140;BME280;4111;50.972;7.072;2023-02-01T09:47:15;101571.31;;;6.38;89.20
8140;BME280;4111;50.972;7.072;2023-02-01T09:52:29;101568.13;;;6.63;87.83
8140;BME280;4111;50.972;7.072;2023-02-01T09:55:01;101565.66;;;6.68;87.93
8140;BME280;4111;50.972;7.072;2023-02-01T09:57:42;101560.66;;;6.65;87.62
8140;BME280;4111;50.972;7.072;2023-02-01T10:00:25;101572.06;;;6.60;87.91
8140;BME280;4111;50.972;7.072;2023-02-01T10:02:54;101568.94;;;6.57;87.78
8140;BME280;4111;50.972;7.072;2023-02-01T10:11:06;101565.03;;;6.31;88.58
8140;BME280;4111;50.972;7.072;2023-02-01T10:22:10;101544.72;;;6.35;89.23
8140;BME280;4111;50.972;7.072;2023-02-01T10:27:29;101546.44;;;6.43;88.99
8140;BME280;4111;50.972;7.072;2023-02-01T10:30:03;101543.75;;;6.49;88.63
8140;BME280;4111;50.972;7.072;2023-02-01T10:32:33;101552.50;;;6.51;88.88
8140;BME280;4111;50.972;7.072;2023-02-01T10:35:10;101553.19;;;6.60;88.52
8140;BME280;4111;50.972;7.072;2023-02-01T10:37:41;101554.00;;;6.61;88.14
8140;BME280;4111;50.972;7.072;2023-02-01T10:42:40;101546.38;;;6.71;87.81
8140;BME280;4111;50.972;7.072;2023-02-01T10:45:19;101540.81;;;6.86;87.48
8140;BME280;4111;50.972;7.072;2023-02-01T10:47:48;101546.66;;;6.89;87.69
8140;BME280;4111;50.972;7.072;2023-02-01T10:50:23;101539.84;;;7.07;87.42
8140;BME280;4111;50.972;7.072;2023-02-01T10:53:02;101535.72;;;7.24;87.15
8140;BME280;4111;50.972;7.072;2023-02-01T10:55:41;101531.19;;;7.45;86.00
8140;BME280;4111;50.972;7.072;2023-02-01T10:58:17;101530.19;;;7.52;84.53
8140;BME280;4111;50.972;7.072;2023-02-01T11:00:51;101526.00;;;7.63;83.95
8140;BME280;4111;50.972;7.072;2023-02-01T11:03:31;101537.88;;;7.62;83.81
8140;BME280;4111;50.972;7.072;2023-02-01T11:05:59;101535.56;;;7.59;83.35
8140;BME280;4111;50.972;7.072;2023-02-01T11:08:26;101541.38;;;7.56;83.58
8140;BME280;4111;50.972;7.072;2023-02-01T11:11:01;101527.44;;;7.86;83.29
8140;BME280;4111;50.972;7.072;2023-02-01T11:13:31;101533.47;;;8.01;82.07
8140;BME280;4111;50.972;7.072;2023-02-01T11:16:02;101552.41;;;8.08;81.57
8140;BME280;4111;50.972;7.072;2023-02-01T11:18:33;101541.97;;;8.11;81.29
8140;BME280;4111;50.972;7.072;2023-02-01T11:21:01;101538.25;;;8.12;80.82
8140;BME280;4111;50.972;7.072;2023-02-01T11:23:30;101531.16;;;8.11;80.64
8140;BME280;4111;50.972;7.072;2023-02-01T11:26:01;101524.72;;;8.12;80.50
8140;BME280;4111;50.972;7.072;2023-02-01T11:28:35;101520.13;;;8.13;80.39
8140;BME280;4111;50.972;7.072;2023-02-01T11:31:08;101525.97;;;8.17;80.19
8140;BME280;4111;50.972;7.072;2023-02-01T11:33:37;101530.13;;;8.26;79.89
8140;BME280;4111;50.972;7.072;2023-02-01T11:36:10;101524.25;;;8.42;80.29
8140;BME280;4111;50.972;7.072;2023-02-01T11:38:38;101522.59;;;8.48;79.44
8140;BME280;4111;50.972;7.072;2023-02-01T11:41:22;101533.81;;;8.38;79.16
8140;BME280;4111;50.972;7.072;2023-02-01T11:46:23;101519.22;;;8.39;79.23
8140;BME280;4111;50.972;7.072;2023-02-01T11:48:53;101516.75;;;8.44;79.41
8140;BME280;4111;50.972;7.072;2023-02-01T11:51:39;101516.75;;;8.44;79.12
8140;BME280;4111;50.972;7.072;2023-02-01T12:00:10;101495.56;;;8.41;79.12
8140;BME280;4111;50.972;7.072;2023-02-01T12:03:02;101492.19;;;8.46;78.42
8140;BME280;4111;50.972;7.072;2023-02-01T12:17:37;101466.59;;;8.35;77.93
8140;BME280;4111;50.972;7.072;2023-02-01T12:25:34;101465.09;;;8.39;77.64
8140;BME280;4111;50.972;7.072;2023-02-01T12:28:31;101472.22;;;8.33;77.72
8140;BME280;4111;50.972;7.072;2023-02-01T12:31:06;101485.53;;;8.35;77.73
8140;BME280;4111;50.972;7.072;2023-02-01T12:36:37;101479.69;;;8.38;77.62
8140;BME280;4111;50.972;7.072;2023-02-01T12:39:23;101477.59;;;8.40;77.46
8140;BME280;4111;50.972;7.072;2023-02-01T12:41:55;101468.88;;;8.45;77.44
8140;BME280;4111;50.972;7.072;2023-02-01T12:44:43;101474.72;;;8.42;77.94
8140;BME280;4111;50.972;7.072;2023-02-01T12:49:57;101454.97;;;8.41;77.43
8140;BME280;4111;50.972;7.072;2023-02-01T12:55:06;101443.06;;;8.42;77.59
8140;BME280;4111;50.972;7.072;2023-02-01T12:57:37;101428.09;;;8.33;77.45
8140;BME280;4111;50.972;7.072;2023-02-01T13:00:17;101429.75;;;8.34;77.51
8140;BME280;4111;50.972;7.072;2023-02-01T13:03:01;101425.16;;;8.34;78.16
8140;BME280;4111;50.972;7.072;2023-02-01T13:06:37;101423.91;;;8.37;78.19
8140;BME280;4111;50.972;7.072;2023-02-01T13:08:47;101424.34;;;8.34;77.72
8140;BME280;4111;50.972;7.072;2023-02-01T13:11:34;101421.03;;;8.32;77.40
8140;BME280;4111;50.972;7.072;2023-02-01T13:16:46;101412.25;;;8.37;77.52
8140;BME280;4111;50.972;7.072;2023-02-01T13:22:06;101401.22;;;8.38;77.90
8140;BME280;4111;50.972;7.072;2023-02-01T13:24:42;101397.06;;;8.42;77.69
8140;BME280;4111;50.972;7.072;2023-02-01T13:27:12;101398.13;;;8.41;77.80
8140;BME280;4111;50.972;7.072;2023-02-01T13:29:57;101399.72;;;8.49;77.81
8140;BME280;4111;50.972;7.072;2023-02-01T13:35:47;101386.41;;;8.41;77.39
8140;BME280;4111;50.972;7.072;2023-02-01T13:38:39;101386.03;;;8.37;77.52
8140;BME280;4111;50.972;7.072;2023-02-01T13:41:23;101385.41;;;8.35;77.96
8140;BME280;4111;50.972;7.072;2023-02-01T13:43:55;101396.84;;;8.37;78.24
8140;BME280;4111;50.972;7.072;2023-02-01T13:46:24;101390.41;;;8.38;78.42
8140;BME280;4111;50.972;7.072;2023-02-01T13:48:56;101391.66;;;8.36;78.26
8140;BME280;4111;50.972;7.072;2023-02-01T13:51:41;101387.69;;;8.38;78.84
8140;BME280;4111;50.972;7.072;2023-02-01T13:54:25;101393.94;;;8.39;78.60
8140;BME280;4111;50.972;7.072;2023-02-01T13:56:53;101382.28;;;8.38;78.88
8140;BME280;4111;50.972;7.072;2023-02-01T14:05:11;101377.91;;;8.37;79.13
8140;BME280;4111;50.972;7.072;2023-02-01T14:13:37;101390.63;;;8.43;79.14
8140;BME280;4111;50.972;7.072;2023-02-01T14:21:26;101388.69;;;8.50;78.62
8140;BME280;4111;50.972;7.072;2023-02-01T14:26:45;101399.72;;;8.56;78.52
8140;BME280;4111;50.972;7.072;2023-02-01T14:34:36;101408.25;;;8.52;78.22
8140;BME280;4111;50.972;7.072;2023-02-01T14:37:13;101405.34;;;8.54;78.09
8140;BME280;4111;50.972;7.072;2023-02-01T14:40:03;101410.94;;;8.59;78.06
8140;BME280;4111;50.972;7.072;2023-02-01T14:42:52;101415.94;;;8.56;77.58
8140;BME280;4111;50.972;7.072;2023-02-01T14:50:31;101428.34;;;8.70;77.13
8140;BME280;4111;50.972;7.072;2023-02-01T14:58:49;101416.31;;;8.66;76.89
8140;BME280;4111;50.972;7.072;2023-02-01T15:01:23;101404.44;;;8.67;77.02
8140;BME280;4111;50.972;7.072;2023-02-01T15:04:13;101418.81;;;8.67;76.83
8140;BME280;4111;50.972;7.072;2023-02-01T15:06:43;101408.38;;;8.71;76.47
8140;BME280;4111;50.972;7.072;2023-02-01T15:09:15;101412.13;;;8.70;76.41
8140;BME280;4111;50.972;7.072;2023-02-01T15:14:35;101402.34;;;8.69;76.01
8140;BME280;4111;50.972;7.072;2023-02-01T15:17:03;101418.75;;;8.74;76.15
8140;BME280;4111;50.972;7.072;2023-02-01T15:19:30;101414.41;;;8.73;76.42
8140;BME280;4111;50.972;7.072;2023-02-01T15:21:58;101419.19;;;8.71;76.28
8140;BME280;4111;50.972;7.072;2023-02-01T15:24:27;101427.09;;;8.72;76.27
8140;BME280;4111;50.972;7.072;2023-02-01T15:26:55;101438.31;;;8.76;76.27
8140;BME280;4111;50.972;7.072;2023-02-01T15:29:23;101438.78;;;8.73;76.26
8140;BME280;4111;50.972;7.072;2023-02-01T15:31:54;101438.78;;;8.73;76.62
8140;BME280;4111;50.972;7.072;2023-02-01T15:34:21;101445.22;;;8.72;76.59
8140;BME280;4111;50.972;7.072;2023-02-01T15:36:48;101444.00;;;8.68;77.25
8140;BME280;4111;50.972;7.072;2023-02-01T15:39:28;101434.22;;;8.67;77.43
8140;BME280;4111;50.972;7.072;2023-02-01T15:42:01;101439.19;;;8.70;77.44
8140;BME280;4111;50.972;7.072;2023-02-01T15:44:40;101451.25;;;8.74;77.18
8140;BME280;4111;50.972;7.072;2023-02-01T15:47:13;101437.91;;;8.72;77.17
8140;BME280;4111;50.972;7.072;2023-02-01T15:49:41;101427.94;;;8.73;77.47
8140;BME280;4111;50.972;7.072;2023-02-01T15:52:25;101436.66;;;8.75;77.22
8140;BME280;4111;50.972;7.072;2023-02-01T15:54:56;101431.47;;;8.73;77.36